sensor_id;sensor_type;location;lat;lon;timestamp;noise_LAeq;noise_LA_min;noise_LA_max;noise_LA01;noise_LA95
46749;Laerm;33775;47.992;11.864;2023-12-14T00:02:18;37.17;33.44;39.46;;
46749;Laerm;33775;47.992;11.864;2023-12-14T00:04:43;37.19;32.35;40.13;;
46749;Laerm;33775;47.992;11.864;2023-12-14T00:07:08;37.18;32.93;40.23;;
46749;Laerm;33775;47.992;11.864;2023-12-14T00:09:33;37.14;32.35;40.13;;
46749;Laerm;33775;47.992;11.864;2023-12-14T00:11:58;37.18;32.93;40.03;;
46749;Laerm;33775;47.992;11.864;2023-12-14T00:14:24;37.17;32.35;39.70;;
46749;Laerm;33775;47.992;11.864;2023-12-14T00:16:49;37.13;31.68;39.70;;
46749;Laerm;33775;47.992;11.864;2023-12-14T00:19:14;37.13;32.35;40.03;;
46749;Laerm;33775;47.992;11.864;2023-12-14T00:21:39;37.09;31.68;39.58;;
46749;Laerm;33775;47.992;11.864;2023-12-14T00:24:05;37.07;32.93;39.92;;
46749;Laerm;33775;47.992;11.864;2023-12-14T00:26:30;37.02;30.89;39.81;;
46749;Laerm;33775;47.992;11.864;2023-12-14T00:28:55;37.02;32.93;39.46;;
46749;Laerm;33775;47.992;11.864;2023-12-14T00:31:20;37.05;32.93;39.58;;
46749;Laerm;33775;47.992;11.864;2023-12-14T00:33:45;37.02;29.92;39.46;;
46749;Laerm;33775;47.992;11.864;2023-12-14T00:36:17;37.03;32.93;39.70;;
46749;Laerm;33775;47.992;11.864;2023-12-14T00:38:42;37.07;31.68;39.58;;
46749;Laerm;33775;47.992;11.864;2023-12-14T00:41:07;37.11;32.35;39.81;;
46749;Laerm;33775;47.992;11.864;2023-12-14T00:43:32;37.11;32.35;39.58;;
46749;Laerm;33775;47.992;11.864;2023-12-14T00:45:57;37.14;32.93;39.58;;
46749;Laerm;33775;47.992;11.864;2023-12-14T00:48:23;37.15;31.68;39.81;;
46749;Laerm;33775;47.992;11.864;2023-12-14T00:50:48;37.17;32.35;40.13;;
46749;Laerm;33775;47.992;11.864;2023-12-14T00:53:13;37.11;32.35;39.81;;
46749;Laerm;33775;47.992;11.864;2023-12-14T00:55:38;37.08;32.93;39.58;;
46749;Laerm;33775;47.992;11.864;2023-12-14T00:58:03;37.13;32.35;40.43;;
46749;Laerm;33775;47.992;11.864;2023-12-14T01:00:29;37.09;31.68;40.13;;
46749;Laerm;33775;47.992;11.864;2023-12-14T01:02:55;37.10;32.35;39.81;;
46749;Laerm;33775;47.992;11.864;2023-12-14T01:05:20;37.09;33.09;39.92;;
46749;Laerm;33775;47.992;11.864;2023-12-14T01:07:46;37.14;32.35;39.70;;
46749;Laerm;33775;47.992;11.864;2023-12-14T01:10:11;37.09;32.93;39.92;;
46749;Laerm;33775;47.992;11.864;2023-12-14T01:12:36;37.12;30.89;39.70;;
46749;Laerm;33775;47.992;11.864;2023-12-14T01:15:02;37.11;32.93;39.58;;
46749;Laerm;33775;47.992;11.864;2023-12-14T01:17:27;37.09;32.35;39.81;;
46749;Laerm;33775;47.992;11.864;2023-12-14T01:19:53;37.07;32.35;40.03;;
46749;Laerm;33775;47.992;11.864;2023-12-14T01:22:19;37.07;32.35;40.03;;
46749;Laerm;33775;47.992;11.864;2023-12-14T01:24:44;37.05;32.35;39.70;;
46749;Laerm;33775;47.992;11.864;2023-12-14T01:27:09;37.05;32.35;39.58;;
46749;Laerm;33775;47.992;11.864;2023-12-14T01:29:35;37.04;31.33;39.46;;
46749;Laerm;33775;47.992;11.864;2023-12-14T01:32:00;37.01;31.68;39.70;;
46749;Laerm;33775;47.992;11.864;2023-12-14T01:34:25;37.01;32.35;40.23;;
46749;Laerm;33775;47.992;11.864;2023-12-14T01:36:51;36.99;32.35;39.92;;
46749;Laerm;33775;47.992;11.864;2023-12-14T01:39:17;36.99;32.35;40.13;;
46749;Laerm;33775;47.992;11.864;2023-12-14T01:41:42;36.96;31.68;39.58;;
46749;Laerm;33775;47.992;11.864;2023-12-14T01:44:07;36.99;31.68;39.46;;
46749;Laerm;33775;47.992;11.864;2023-12-14T01:46:32;37.00;31.68;39.92;;
46749;Laerm;33775;47.992;11.864;2023-12-14T01:48:57;36.83;29.92;39.70;;
46749;Laerm;33775;47.992;11.864;2023-12-14T01:51:22;36.77;29.92;39.70;;
46749;Laerm;33775;47.992;11.864;2023-12-14T01:53:48;36.85;30.89;39.21;;
46749;Laerm;33775;47.992;11.864;2023-12-14T01:56:13;36.86;31.68;39.58;;
46749;Laerm;33775;47.992;11.864;2023-12-14T01:58:38;36.90;29.92;39.21;;
46749;Laerm;33775;47.992;11.864;2023-12-14T02:03:29;36.88;29.92;39.21;;
46749;Laerm;33775;47.992;11.864;2023-12-14T02:05:54;36.89;29.92;39.70;;
46749;Laerm;33775;47.992;11.864;2023-12-14T02:08:19;36.93;31.68;39.46;;
46749;Laerm;33775;47.992;11.864;2023-12-14T02:10:44;36.86;30.89;39.70;;
46749;Laerm;33775;47.992;11.864;2023-12-14T02:13:09;36.50;30.89;39.21;;
46749;Laerm;33775;47.992;11.864;2023-12-14T02:15:35;36.41;28.67;39.21;;
46749;Laerm;33775;47.992;11.864;2023-12-14T02:18:00;36.33;29.57;39.70;;
46749;Laerm;33775;47.992;11.864;2023-12-14T02:20:25;36.36;26.91;39.21;;
46749;Laerm;33775;47.992;11.864;2023-12-14T02:25:16;36.72;30.89;39.46;;
46749;Laerm;33775;47.992;11.864;2023-12-14T02:27:41;36.91;30.89;39.58;;
46749;Laerm;33775;47.992;11.864;2023-12-14T02:30:06;37.10;29.92;39.81;;
46749;Laerm;33775;47.992;11.864;2023-12-14T02:32:31;37.01;29.92;39.34;;
46749;Laerm;33775;47.992;11.864;2023-12-14T02:34:57;36.93;30.89;39.58;;
46749;Laerm;33775;47.992;11.864;2023-12-14T02:37:22;36.97;31.68;39.46;;
46749;Laerm;33775;47.992;11.864;2023-12-14T02:39:47;37.01;30.89;39.34;;
46749;Laerm;33775;47.992;11.864;2023-12-14T02:42:12;37.14;30.89;39.92;;
46749;Laerm;33775;47.992;11.864;2023-12-14T02:44:37;37.11;30.89;39.58;;
46749;Laerm;33775;47.992;11.864;2023-12-14T02:47:03;37.01;30.89;39.34;;
46749;Laerm;33775;47.992;11.864;2023-12-14T02:49:28;37.02;30.89;39.58;;
46749;Laerm;33775;47.992;11.864;2023-12-14T02:51:53;37.03;30.89;39.46;;
46749;Laerm;33775;47.992;11.864;2023-12-14T02:54:19;37.07;31.68;39.46;;
46749;Laerm;33775;47.992;11.864;2023-12-14T02:56:44;37.01;30.54;39.46;;
46749;Laerm;33775;47.992;11.864;2023-12-14T02:59:09;36.98;29.92;39.58;;
46749;Laerm;33775;47.992;11.864;2023-12-14T03:01:34;37.01;29.92;39.58;;
46749;Laerm;33775;47.992;11.864;2023-12-14T03:03:59;37.01;31.68;39.46;;
46749;Laerm;33775;47.992;11.864;2023-12-14T03:06:25;37.00;29.92;39.46;;
46749;Laerm;33775;47.992;11.864;2023-12-14T03:08:50;37.01;30.89;39.46;;
46749;Laerm;33775;47.992;11.864;2023-12-14T03:11:21;37.00;30.89;39.46;;
46749;Laerm;33775;47.992;11.864;2023-12-14T03:13:48;37.03;29.92;39.70;;
46749;Laerm;33775;47.992;11.864;2023-12-14T03:16:13;37.02;29.92;39.46;;
46749;Laerm;33775;47.992;11.864;2023-12-14T03:18:38;37.10;26.91;39.34;;
46749;Laerm;33775;47.992;11.864;2023-12-14T03:21:04;37.07;31.68;39.46;;
46749;Laerm;33775;47.992;11.864;2023-12-14T03:23:29;37.01;29.92;39.34;;
46749;Laerm;33775;47.992;11.864;2023-12-14T03:25:54;36.90;30.89;39.21;;
46749;Laerm;33775;47.992;11.864;2023-12-14T03:28:19;36.95;29.92;39.21;;
46749;Laerm;33775;47.992;11.864;2023-12-14T03:30:44;37.04;30.89;39.46;;
46749;Laerm;33775;47.992;11.864;2023-12-14T03:33:10;37.34;31.68;39.46;;
46749;Laerm;33775;47.992;11.864;2023-12-14T03:35:35;37.33;30.89;39.70;;
46749;Laerm;33775;47.992;11.864;2023-12-14T03:38:01;37.14;29.92;39.58;;
46749;Laerm;33775;47.992;11.864;2023-12-14T03:40:26;37.07;31.68;39.58;;
46749;Laerm;33775;47.992;11.864;2023-12-14T03:42:51;36.93;31.68;39.46;;
46749;Laerm;33775;47.992;11.864;2023-12-14T03:45:16;36.97;29.92;39.58;;
46749;Laerm;33775;47.992;11.864;2023-12-14T03:47:41;37.08;30.89;39.58;;
46749;Laerm;33775;47.992;11.864;2023-12-14T03:50:07;36.92;28.32;39.58;;
46749;Laerm;33775;47.992;11.864;2023-12-14T03:52:32;36.85;29.92;39.70;;
46749;Laerm;33775;47.992;11.864;2023-12-14T03:54:57;36.85;28.67;39.70;;
46749;Laerm;33775;47.992;11.864;2023-12-14T03:57:22;36.86;28.67;39.34;;
46749;Laerm;33775;47.992;11.864;2023-12-14T03:59:48;36.89;30.89;39.70;;
46749;Laerm;33775;47.992;11.864;2023-12-14T04:02:13;36.88;30.54;39.08;;
46749;Laerm;33775;47.992;11.864;2023-12-14T04:04:38;36.88;29.92;39.58;;
46749;Laerm;33775;47.992;11.864;2023-12-14T04:07:04;36.93;29.92;39.70;;
46749;Laerm;33775;47.992;11.864;2023-12-14T04:09:29;36.91;30.89;39.46;;
46749;Laerm;33775;47.992;11.864;2023-12-14T04:11:54;36.93;30.89;39.70;;
46749;Laerm;33775;47.992;11.864;2023-12-14T04:14:19;36.94;30.89;39.46;;
46749;Laerm;33775;47.992;11.864;2023-12-14T04:16:44;36.96;31.68;39.34;;
46749;Laerm;33775;47.992;11.864;2023-12-14T04:19:10;36.94;30.89;39.58;;
46749;Laerm;33775;47.992;11.864;2023-12-14T04:21:35;36.92;30.89;39.58;;
46749;Laerm;33775;47.992;11.864;2023-12-14T04:24:01;36.92;30.89;39.46;;
46749;Laerm;33775;47.992;11.864;2023-12-14T04:26:26;36.90;30.89;39.58;;
46749;Laerm;33775;47.992;11.864;2023-12-14T04:28:52;36.90;28.67;39.34;;
46749;Laerm;33775;47.992;11.864;2023-12-14T04:31:17;36.88;30.89;39.21;;
46749;Laerm;33775;47.992;11.864;2023-12-14T04:33:42;36.90;31.68;39.34;;
46749;Laerm;33775;47.992;11.864;2023-12-14T04:36:08;36.90;26.91;39.46;;
46749;Laerm;33775;47.992;11.864;2023-12-14T04:38:33;36.86;30.89;39.70;;
46749;Laerm;33775;47.992;11.864;2023-12-14T04:40:58;36.91;29.92;39.21;;
46749;Laerm;33775;47.992;11.864;2023-12-14T04:43:23;36.91;29.92;39.34;;
46749;Laerm;33775;47.992;11.864;2023-12-14T04:45:48;36.91;29.92;39.58;;
46749;Laerm;33775;47.992;11.864;2023-12-14T04:48:13;36.95;31.68;39.34;;
46749;Laerm;33775;47.992;11.864;2023-12-14T04:50:39;36.91;29.92;39.58;;
46749;Laerm;33775;47.992;11.864;2023-12-14T04:53:04;36.92;29.92;39.21;;
46749;Laerm;33775;47.992;11.864;2023-12-14T04:55:29;36.94;29.92;39.34;;
46749;Laerm;33775;47.992;11.864;2023-12-14T04:57:54;36.92;31.68;39.46;;
46749;Laerm;33775;47.992;11.864;2023-12-14T05:00:20;36.92;29.92;39.46;;
46749;Laerm;33775;47.992;11.864;2023-12-14T05:02:48;36.95;30.89;39.81;;
46749;Laerm;33775;47.992;11.864;2023-12-14T05:05:16;37.00;31.68;39.21;;
46749;Laerm;33775;47.992;11.864;2023-12-14T05:07:41;36.99;30.89;39.46;;
46749;Laerm;33775;47.992;11.864;2023-12-14T05:10:06;36.98;26.91;39.70;;
46749;Laerm;33775;47.992;11.864;2023-12-14T05:12:32;36.96;28.67;39.34;;
46749;Laerm;33775;47.992;11.864;2023-12-14T05:14:57;36.99;31.68;39.58;;
46749;Laerm;33775;47.992;11.864;2023-12-14T05:17:22;36.93;29.92;39.46;;
46749;Laerm;33775;47.992;11.864;2023-12-14T05:19:47;36.97;30.89;40.03;;
46749;Laerm;33775;47.992;11.864;2023-12-14T05:22:13;36.97;30.89;39.70;;
46749;Laerm;33775;47.992;11.864;2023-12-14T05:24:38;37.01;29.92;39.46;;
46749;Laerm;33775;47.992;11.864;2023-12-14T05:27:03;36.95;28.67;39.58;;
46749;Laerm;33775;47.992;11.864;2023-12-14T05:29:28;36.95;31.68;39.08;;
46749;Laerm;33775;47.992;11.864;2023-12-14T05:31:54;36.96;31.68;39.34;;
46749;Laerm;33775;47.992;11.864;2023-12-14T05:34:19;36.95;31.68;39.58;;
46749;Laerm;33775;47.992;11.864;2023-12-14T05:36:44;36.94;31.68;39.46;;
46749;Laerm;33775;47.992;11.864;2023-12-14T05:39:09;36.99;31.68;39.58;;
46749;Laerm;33775;47.992;11.864;2023-12-14T05:41:39;36.98;32.35;39.58;;
46749;Laerm;33775;47.992;11.864;2023-12-14T05:44:04;36.95;30.89;39.46;;
46749;Laerm;33775;47.992;11.864;2023-12-14T05:46:29;37.01;31.68;39.92;;
46749;Laerm;33775;47.992;11.864;2023-12-14T05:48:54;36.96;31.68;39.46;;
46749;Laerm;33775;47.992;11.864;2023-12-14T05:51:32;36.96;31.68;39.46;;
46749;Laerm;33775;47.992;11.864;2023-12-14T05:53:57;36.96;32.00;39.70;;
46749;Laerm;33775;47.992;11.864;2023-12-14T05:56:23;36.92;30.89;39.34;;
46749;Laerm;33775;47.992;11.864;2023-12-14T05:58:49;36.92;29.92;39.34;;
46749;Laerm;33775;47.992;11.864;2023-12-14T06:01:16;36.95;30.89;39.58;;
46749;Laerm;33775;47.992;11.864;2023-12-14T06:03:41;36.91;30.89;39.34;;
46749;Laerm;33775;47.992;11.864;2023-12-14T06:06:06;36.88;31.68;39.34;;
46749;Laerm;33775;47.992;11.864;2023-12-14T06:08:31;36.94;30.89;39.46;;
46749;Laerm;33775;47.992;11.864;2023-12-14T06:10:57;36.92;31.68;39.21;;
46749;Laerm;33775;47.992;11.864;2023-12-14T06:13:22;36.96;30.89;39.34;;
46749;Laerm;33775;47.992;11.864;2023-12-14T06:15:47;36.98;32.35;39.81;;
46749;Laerm;33775;47.992;11.864;2023-12-14T06:18:12;36.99;31.68;39.58;;
46749;Laerm;33775;47.992;11.864;2023-12-14T06:20:38;36.96;31.68;39.92;;
46749;Laerm;33775;47.992;11.864;2023-12-14T06:23:04;36.97;31.68;39.58;;
46749;Laerm;33775;47.992;11.864;2023-12-14T06:25:29;36.94;30.89;39.92;;
46749;Laerm;33775;47.992;11.864;2023-12-14T06:27:57;36.95;32.35;39.46;;
46749;Laerm;33775;47.992;11.864;2023-12-14T06:30:22;36.94;32.35;39.34;;
46749;Laerm;33775;47.992;11.864;2023-12-14T06:32:48;36.95;30.89;39.46;;
46749;Laerm;33775;47.992;11.864;2023-12-14T06:35:13;36.94;31.68;39.46;;
46749;Laerm;33775;47.992;11.864;2023-12-14T06:37:40;36.96;31.68;39.34;;
46749;Laerm;33775;47.992;11.864;2023-12-14T06:40:06;36.97;31.68;39.70;;
46749;Laerm;33775;47.992;11.864;2023-12-14T06:42:32;36.96;31.68;39.35;;
46749;Laerm;33775;47.992;11.864;2023-12-14T06:44:57;36.94;28.67;39.21;;
46749;Laerm;33775;47.992;11.864;2023-12-14T06:47:22;36.97;30.89;39.34;;
46749;Laerm;33775;47.992;11.864;2023-12-14T06:49:47;36.96;29.92;39.34;;
46749;Laerm;33775;47.992;11.864;2023-12-14T06:52:13;36.97;30.89;39.92;;
46749;Laerm;33775;47.992;11.864;2023-12-14T06:54:38;36.92;31.68;39.46;;
46749;Laerm;33775;47.992;11.864;2023-12-14T06:57:03;36.92;31.68;39.21;;
46749;Laerm;33775;47.992;11.864;2023-12-14T06:59:28;36.94;29.92;39.34;;
46749;Laerm;33775;47.992;11.864;2023-12-14T07:01:54;36.93;31.68;39.92;;
46749;Laerm;33775;47.992;11.864;2023-12-14T07:04:19;36.92;31.68;39.21;;
46749;Laerm;33775;47.992;11.864;2023-12-14T07:06:49;36.95;31.33;39.46;;
46749;Laerm;33775;47.992;11.864;2023-12-14T07:09:15;36.92;30.89;39.70;;
46749;Laerm;33775;47.992;11.864;2023-12-14T07:11:40;36.93;31.68;39.58;;
46749;Laerm;33775;47.992;11.864;2023-12-14T07:14:05;36.91;30.89;39.58;;
46749;Laerm;33775;47.992;11.864;2023-12-14T07:16:30;36.94;29.92;39.46;;
46749;Laerm;33775;47.992;11.864;2023-12-14T07:18:55;36.94;30.89;39.11;;
46749;Laerm;33775;47.992;11.864;2023-12-14T07:21:20;36.94;30.89;39.46;;
46749;Laerm;33775;47.992;11.864;2023-12-14T07:23:47;36.95;29.92;39.70;;
46749;Laerm;33775;47.992;11.864;2023-12-14T07:26:12;36.98;31.68;39.34;;
46749;Laerm;33775;47.992;11.864;2023-12-14T07:28:37;36.95;31.68;39.81;;
46749;Laerm;33775;47.992;11.864;2023-12-14T07:31:02;36.97;29.92;39.58;;
46749;Laerm;33775;47.992;11.864;2023-12-14T07:33:28;36.95;32.35;39.46;;
46749;Laerm;33775;47.992;11.864;2023-12-14T07:35:53;36.95;32.35;39.81;;
46749;Laerm;33775;47.992;11.864;2023-12-14T07:38:18;36.95;29.92;39.46;;
46749;Laerm;33775;47.992;11.864;2023-12-14T07:40:43;36.94;30.89;39.92;;
46749;Laerm;33775;47.992;11.864;2023-12-14T07:43:10;36.94;29.92;39.34;;
46749;Laerm;33775;47.992;11.864;2023-12-14T07:45:35;36.94;32.35;39.58;;
46749;Laerm;33775;47.992;11.864;2023-12-14T07:48:00;36.96;32.35;39.46;;
46749;Laerm;33775;47.992;11.864;2023-12-14T07:50:26;36.95;32.35;39.46;;
46749;Laerm;33775;47.992;11.864;2023-12-14T07:52:51;36.99;32.35;39.34;;
46749;Laerm;33775;47.992;11.864;2023-12-14T07:55:17;36.99;32.35;39.81;;
46749;Laerm;33775;47.992;11.864;2023-12-14T07:57:43;36.97;29.92;39.46;;
46749;Laerm;33775;47.992;11.864;2023-12-14T08:00:09;36.99;31.68;39.58;;
46749;Laerm;33775;47.992;11.864;2023-12-14T08:02:35;37.00;32.93;39.46;;
46749;Laerm;33775;47.992;11.864;2023-12-14T08:05:00;36.98;31.68;39.81;;
46749;Laerm;33775;47.992;11.864;2023-12-14T08:07:25;37.02;32.58;39.70;;
46749;Laerm;33775;47.992;11.864;2023-12-14T08:09:54;37.03;32.93;39.58;;
46749;Laerm;33775;47.992;11.864;2023-12-14T08:12:19;37.02;31.68;39.58;;
46749;Laerm;33775;47.992;11.864;2023-12-14T08:14:44;37.00;31.68;39.92;;
46749;Laerm;33775;47.992;11.864;2023-12-14T08:17:09;37.01;32.00;39.58;;
46749;Laerm;33775;47.992;11.864;2023-12-14T08:19:35;36.98;30.89;39.58;;
46749;Laerm;33775;47.992;11.864;2023-12-14T08:22:00;37.00;32.35;39.70;;
46749;Laerm;33775;47.992;11.864;2023-12-14T08:24:26;36.98;30.89;40.13;;
46749;Laerm;33775;47.992;11.864;2023-12-14T08:26:51;37.06;32.35;39.81;;
46749;Laerm;33775;47.992;11.864;2023-12-14T08:29:16;37.05;33.44;40.33;;
46749;Laerm;33775;47.992;11.864;2023-12-14T08:31:41;37.05;31.68;39.34;;
46749;Laerm;33775;47.992;11.864;2023-12-14T08:34:06;37.04;32.58;39.58;;
46749;Laerm;33775;47.992;11.864;2023-12-14T08:36:32;37.05;31.68;39.92;;
46749;Laerm;33775;47.992;11.864;2023-12-14T08:38:57;37.03;31.68;39.46;;
46749;Laerm;33775;47.992;11.864;2023-12-14T08:41:23;37.03;31.68;39.46;;
46749;Laerm;33775;47.992;11.864;2023-12-14T08:43:48;36.99;32.35;39.70;;
46749;Laerm;33775;47.992;11.864;2023-12-14T08:46:13;37.05;32.35;39.46;;
46749;Laerm;33775;47.992;11.864;2023-12-14T08:48:39;37.12;32.35;39.58;;
46749;Laerm;33775;47.992;11.864;2023-12-14T08:51:04;37.12;32.35;40.03;;
46749;Laerm;33775;47.992;11.864;2023-12-14T08:53:30;37.17;32.35;39.92;;
46749;Laerm;33775;47.992;11.864;2023-12-14T08:55:55;37.16;32.35;40.03;;
46749;Laerm;33775;47.992;11.864;2023-12-14T08:58:20;37.14;32.93;39.70;;
46749;Laerm;33775;47.992;11.864;2023-12-14T09:00:45;37.11;32.35;39.70;;
46749;Laerm;33775;47.992;11.864;2023-12-14T09:03:11;37.17;31.68;40.03;;
46749;Laerm;33775;47.992;11.864;2023-12-14T09:05:37;37.17;32.93;39.92;;
46749;Laerm;33775;47.992;11.864;2023-12-14T09:08:02;37.18;33.44;39.92;;
46749;Laerm;33775;47.992;11.864;2023-12-14T09:10:27;37.23;32.93;39.70;;
46749;Laerm;33775;47.992;11.864;2023-12-14T09:12:53;37.27;33.44;40.03;;
46749;Laerm;33775;47.992;11.864;2023-12-14T09:15:18;37.26;32.93;40.33;;
46749;Laerm;33775;47.992;11.864;2023-12-14T09:17:43;37.26;32.35;39.81;;
46749;Laerm;33775;47.992;11.864;2023-12-14T09:20:09;37.25;32.93;40.23;;
46749;Laerm;33775;47.992;11.864;2023-12-14T09:22:34;37.25;33.44;40.13;;
46749;Laerm;33775;47.992;11.864;2023-12-14T09:25:00;37.25;33.90;39.92;;
46749;Laerm;33775;47.992;11.864;2023-12-14T09:27:25;37.19;32.93;39.92;;
46749;Laerm;33775;47.992;11.864;2023-12-14T09:29:50;37.22;32.35;39.81;;
46749;Laerm;33775;47.992;11.864;2023-12-14T09:32:15;37.20;32.35;39.58;;
46749;Laerm;33775;47.992;11.864;2023-12-14T09:34:42;37.21;32.35;39.92;;
46749;Laerm;33775;47.992;11.864;2023-12-14T09:37:07;37.24;32.35;40.03;;
46749;Laerm;33775;47.992;11.864;2023-12-14T09:39:32;37.25;32.35;39.70;;
46749;Laerm;33775;47.992;11.864;2023-12-14T09:42:04;37.19;32.35;39.81;;
46749;Laerm;33775;47.992;11.864;2023-12-14T09:44:30;37.23;32.93;39.92;;
46749;Laerm;33775;47.992;11.864;2023-12-14T09:46:55;37.22;32.93;40.03;;
46749;Laerm;33775;47.992;11.864;2023-12-14T09:49:21;37.20;30.89;39.92;;
46749;Laerm;33775;47.992;11.864;2023-12-14T09:51:48;37.24;32.35;40.33;;
46749;Laerm;33775;47.992;11.864;2023-12-14T09:54:13;37.25;32.35;39.70;;
46749;Laerm;33775;47.992;11.864;2023-12-14T09:56:45;37.28;33.90;39.81;;
46749;Laerm;33775;47.992;11.864;2023-12-14T09:59:11;37.27;32.35;40.13;;
46749;Laerm;33775;47.992;11.864;2023-12-14T10:01:36;37.29;32.93;39.92;;
46749;Laerm;33775;47.992;11.864;2023-12-14T10:04:08;37.24;32.93;39.70;;
46749;Laerm;33775;47.992;11.864;2023-12-14T10:06:33;37.21;32.93;40.33;;
46749;Laerm;33775;47.992;11.864;2023-12-14T10:08:58;37.17;30.89;39.70;;
46749;Laerm;33775;47.992;11.864;2023-12-14T10:11:24;37.16;30.89;39.70;;
46749;Laerm;33775;47.992;11.864;2023-12-14T10:13:49;37.16;32.35;39.92;;
46749;Laerm;33775;47.992;11.864;2023-12-14T10:16:26;37.17;32.93;39.81;;
46749;Laerm;33775;47.992;11.864;2023-12-14T10:18:51;37.17;33.44;39.81;;
46749;Laerm;33775;47.992;11.864;2023-12-14T10:21:16;37.23;32.93;40.13;;
46749;Laerm;33775;47.992;11.864;2023-12-14T10:23:42;37.18;32.93;40.33;;
46749;Laerm;33775;47.992;11.864;2023-12-14T10:26:07;37.16;32.93;39.92;;
46749;Laerm;33775;47.992;11.864;2023-12-14T10:28:33;37.13;32.93;39.81;;
46749;Laerm;33775;47.992;11.864;2023-12-14T10:30:58;37.08;32.35;39.58;;
46749;Laerm;33775;47.992;11.864;2023-12-14T10:33:24;36.86;30.89;39.34;;
46749;Laerm;33775;47.992;11.864;2023-12-14T10:35:49;36.92;30.89;39.46;;
46749;Laerm;33775;47.992;11.864;2023-12-14T10:38:15;37.00;31.68;39.92;;
46749;Laerm;33775;47.992;11.864;2023-12-14T10:40:40;37.06;30.89;39.81;;
46749;Laerm;33775;47.992;11.864;2023-12-14T10:43:08;37.14;32.93;39.58;;
46749;Laerm;33775;47.992;11.864;2023-12-14T10:45:34;37.14;32.35;40.03;;
46749;Laerm;33775;47.992;11.864;2023-12-14T10:48:00;37.14;29.92;40.13;;
46749;Laerm;33775;47.992;11.864;2023-12-14T10:50:28;37.13;33.44;40.03;;
46749;Laerm;33775;47.992;11.864;2023-12-14T10:52:53;37.13;31.68;39.81;;
46749;Laerm;33775;47.992;11.864;2023-12-14T10:55:27;37.12;32.00;39.92;;
46749;Laerm;33775;47.992;11.864;2023-12-14T10:57:53;37.15;32.58;40.13;;
46749;Laerm;33775;47.992;11.864;2023-12-14T11:00:18;37.19;33.44;39.58;;
46749;Laerm;33775;47.992;11.864;2023-12-14T11:02:46;37.16;32.35;39.92;;
46749;Laerm;33775;47.992;11.864;2023-12-14T11:05:12;37.24;32.93;39.92;;
46749;Laerm;33775;47.992;11.864;2023-12-14T11:07:48;37.30;33.90;40.03;;
46749;Laerm;33775;47.992;11.864;2023-12-14T11:10:14;37.32;33.44;40.03;;
46749;Laerm;33775;47.992;11.864;2023-12-14T11:15:17;37.30;33.44;40.23;;
46749;Laerm;33775;47.992;11.864;2023-12-14T11:17:43;37.30;32.93;40.03;;
46749;Laerm;33775;47.992;11.864;2023-12-14T11:20:29;37.31;33.44;40.13;;
46749;Laerm;33775;47.992;11.864;2023-12-14T11:22:55;37.27;33.44;39.92;;
46749;Laerm;33775;47.992;11.864;2023-12-14T11:25:20;37.32;32.93;40.03;;
46749;Laerm;33775;47.992;11.864;2023-12-14T11:27:45;37.33;33.09;39.92;;
46749;Laerm;33775;47.992;11.864;2023-12-14T11:30:11;37.35;33.44;40.53;;
46749;Laerm;33775;47.992;11.864;2023-12-14T11:32:37;37.37;32.93;39.70;;
46749;Laerm;33775;47.992;11.864;2023-12-14T11:35:02;37.40;32.93;40.03;;
46749;Laerm;33775;47.992;11.864;2023-12-14T11:37:27;37.39;32.93;39.92;;
46749;Laerm;33775;47.992;11.864;2023-12-14T11:39:53;37.42;32.93;40.13;;
46749;Laerm;33775;47.992;11.864;2023-12-14T11:42:19;37.40;32.35;40.13;;
46749;Laerm;33775;47.992;11.864;2023-12-14T11:44:45;37.40;31.68;40.23;;
46749;Laerm;33775;47.992;11.864;2023-12-14T11:47:10;37.40;32.35;40.71;;
46749;Laerm;33775;47.992;11.864;2023-12-14T11:49:35;37.38;32.93;40.13;;
46749;Laerm;33775;47.992;11.864;2023-12-14T11:52:01;37.36;32.93;40.80;;
46749;Laerm;33775;47.992;11.864;2023-12-14T11:54:27;37.36;32.93;40.03;;
46749;Laerm;33775;47.992;11.864;2023-12-14T11:56:52;37.44;32.35;40.98;;
46749;Laerm;33775;47.992;11.864;2023-12-14T11:59:18;37.38;33.44;40.13;;
46749;Laerm;33775;47.992;11.864;2023-12-14T12:01:57;37.40;32.35;40.43;;
46749;Laerm;33775;47.992;11.864;2023-12-14T12:04:23;37.40;33.44;40.13;;
46749;Laerm;33775;47.992;11.864;2023-12-14T12:06:48;37.40;32.35;40.03;;
46749;Laerm;33775;47.992;11.864;2023-12-14T12:09:13;37.41;33.44;39.92;;
46749;Laerm;33775;47.992;11.864;2023-12-14T12:11:38;37.40;32.93;40.03;;
46749;Laerm;33775;47.992;11.864;2023-12-14T12:14:04;37.42;32.93;40.71;;
46749;Laerm;33775;47.992;11.864;2023-12-14T12:16:29;37.44;31.68;40.33;;
46749;Laerm;33775;47.992;11.864;2023-12-14T12:18:56;37.43;32.00;40.33;;
46749;Laerm;33775;47.992;11.864;2023-12-14T12:21:21;37.45;32.35;40.23;;
46749;Laerm;33775;47.992;11.864;2023-12-14T12:23:46;37.33;32.35;40.33;;
46749;Laerm;33775;47.992;11.864;2023-12-14T12:26:11;37.32;33.44;40.43;;
46749;Laerm;33775;47.992;11.864;2023-12-14T12:28:37;37.31;32.93;40.03;;
46749;Laerm;33775;47.992;11.864;2023-12-14T12:31:02;37.30;32.93;40.13;;
46749;Laerm;33775;47.992;11.864;2023-12-14T12:33:27;37.35;32.93;40.62;;
46749;Laerm;33775;47.992;11.864;2023-12-14T12:35:52;37.37;30.89;40.53;;
46749;Laerm;33775;47.992;11.864;2023-12-14T12:38:19;37.36;30.89;40.33;;
46749;Laerm;33775;47.992;11.864;2023-12-14T12:40:44;37.37;32.35;40.33;;
46749;Laerm;33775;47.992;11.864;2023-12-14T12:43:09;37.36;31.68;39.81;;
46749;Laerm;33775;47.992;11.864;2023-12-14T12:45:35;37.39;32.93;39.92;;
46749;Laerm;33775;47.992;11.864;2023-12-14T12:48:00;37.41;32.93;40.43;;
46749;Laerm;33775;47.992;11.864;2023-12-14T12:50:27;37.38;33.44;40.13;;
46749;Laerm;33775;47.992;11.864;2023-12-14T12:52:53;37.42;33.44;40.33;;
46749;Laerm;33775;47.992;11.864;2023-12-14T12:55:18;37.39;33.44;40.53;;
46749;Laerm;33775;47.992;11.864;2023-12-14T12:57:43;37.40;33.44;40.03;;
46749;Laerm;33775;47.992;11.864;2023-12-14T13:00:09;37.38;32.35;40.33;;
46749;Laerm;33775;47.992;11.864;2023-12-14T13:02:43;37.37;32.93;40.23;;
46749;Laerm;33775;47.992;11.864;2023-12-14T13:05:09;37.40;31.68;40.13;;
46749;Laerm;33775;47.992;11.864;2023-12-14T13:07:34;37.43;32.35;39.92;;
46749;Laerm;33775;47.992;11.864;2023-12-14T13:10:00;37.39;32.35;40.13;;
46749;Laerm;33775;47.992;11.864;2023-12-14T13:12:25;37.41;32.93;40.03;;
46749;Laerm;33775;47.992;11.864;2023-12-14T13:14:51;37.40;32.93;40.13;;
46749;Laerm;33775;47.992;11.864;2023-12-14T13:17:16;37.43;31.68;40.23;;
46749;Laerm;33775;47.992;11.864;2023-12-14T13:19:43;37.41;32.93;40.13;;
46749;Laerm;33775;47.992;11.864;2023-12-14T13:22:08;37.41;32.93;39.92;;
46749;Laerm;33775;47.992;11.864;2023-12-14T13:24:33;37.38;33.44;40.03;;
46749;Laerm;33775;47.992;11.864;2023-12-14T13:26:58;37.37;32.35;40.03;;
46749;Laerm;33775;47.992;11.864;2023-12-14T13:29:23;37.39;32.93;39.92;;
46749;Laerm;33775;47.992;11.864;2023-12-14T13:31:49;37.37;32.93;40.23;;